Time;durP1;ratioP1;P1;durP2;ratioP2;P2;SDS_P1;SDS_P2;PMS_P1;PMS_P2;Temp;Humidity;BMP_temperature;BMP_pressure;BME280_temperature;BME280_humidity;BME280_pressure;Samples;Min_cycle;Max_cycle;Signal;HPM_P1;HPM_P2
2022/04/06 00:00:23;;;;;;;4.85;2.13;;;9.80;99.90;;;;;;5027694;28;20087;-66
2022/04/06 00:02:48;;;;;;;4.07;1.73;;;9.80;99.90;;;;;;5026539;28;20025;-67
2022/04/06 00:05:17;;;;;;;3.80;1.98;;;9.80;99.90;;;;;;5028402;28;20504;-67
2022/04/06 00:07:44;;;;;;;2.40;1.80;;;9.80;99.90;;;;;;5025774;28;20037;-67
2022/04/06 00:10:12;;;;;;;3.15;1.83;;;9.80;99.90;;;;;;5023428;28;20048;-67
2022/04/06 00:12:39;;;;;;;2.72;1.58;;;9.80;99.90;;;;;;5025766;28;20087;-67
2022/04/06 00:15:08;;;;;;;2.83;1.58;;;9.80;99.90;;;;;;5026782;28;20037;-67
2022/04/06 00:17:34;;;;;;;2.63;1.70;;;9.80;99.90;;;;;;5023891;28;20029;-67
2022/04/06 00:19:59;;;;;;;2.80;2.13;;;9.80;99.90;;;;;;5025514;28;20037;-68
2022/04/06 00:22:25;;;;;;;3.85;1.75;;;9.80;99.90;;;;;;5024417;28;20743;-68
2022/04/06 00:24:51;;;;;;;3.85;2.20;;;9.80;99.90;;;;;;5022197;28;20076;-67
2022/04/06 00:27:17;;;;;;;5.38;2.78;;;9.80;99.90;;;;;;5024735;28;21180;-67
2022/04/06 00:29:43;;;;;;;3.03;2.00;;;9.70;99.90;;;;;;5025957;28;20034;-68
2022/04/06 00:32:09;;;;;;;5.53;2.60;;;9.70;99.90;;;;;;5023429;28;20029;-68
2022/04/06 00:37:22;;;;;;;4.05;2.05;;;9.70;99.90;;;;;;5026395;28;20041;-68
2022/04/06 00:39:51;;;;;;;5.53;1.80;;;9.70;99.90;;;;;;5025768;28;20025;-67
2022/04/06 00:42:18;;;;;;;3.03;1.58;;;9.70;99.90;;;;;;5023670;28;20059;-67
2022/04/06 00:44:44;;;;;;;4.55;1.73;;;9.70;99.90;;;;;;5024879;28;20032;-67
2022/04/06 00:47:10;;;;;;;2.40;1.55;;;9.70;99.90;;;;;;5029741;28;20026;-67
2022/04/06 00:49:36;;;;;;;3.67;1.83;;;9.70;99.90;;;;;;5028892;28;20017;-68
2022/04/06 00:52:04;;;;;;;3.22;1.90;;;9.70;99.90;;;;;;5029771;28;20038;-68
2022/04/06 00:54:31;;;;;;;4.43;1.65;;;9.70;99.90;;;;;;5028308;28;20037;-68
2022/04/06 00:56:59;;;;;;;2.05;1.35;;;9.70;99.90;;;;;;5031615;28;20056;-68
2022/04/06 00:59:28;;;;;;;4.28;2.03;;;9.70;99.90;;;;;;5031568;28;20021;-67
2022/04/06 01:01:55;;;;;;;4.32;1.80;;;9.70;99.90;;;;;;5027196;28;20021;-67
2022/04/06 01:04:21;;;;;;;3.55;1.98;;;9.70;99.90;;;;;;5028227;28;20034;-68
2022/04/06 01:06:52;;;;;;;5.03;1.83;;;9.70;99.90;;;;;;5028260;28;20021;-67
2022/04/06 01:09:19;;;;;;;2.67;1.60;;;9.70;99.90;;;;;;5049572;23;20099;-73
2022/04/06 01:11:47;;;;;;;4.45;1.63;;;9.70;99.90;;;;;;5030770;28;20026;-72
2022/04/06 01:14:17;;;;;;;3.70;1.55;;;9.70;99.90;;;;;;5025008;28;20049;-72
2022/04/06 01:16:57;;;;;;;2.30;1.38;;;9.70;99.90;;;;;;5029255;28;20021;-72
2022/04/06 01:19:23;;;;;;;2.17;1.33;;;9.70;99.90;;;;;;5030222;28;20121;-72
2022/04/06 01:21:48;;;;;;;3.20;1.38;;;9.70;99.90;;;;;;5031448;28;20220;-72
2022/04/06 01:24:14;;;;;;;2.22;1.40;;;9.70;99.90;;;;;;5029042;28;20450;-72
2022/04/06 01:26:40;;;;;;;2.65;1.58;;;9.70;99.90;;;;;;5028635;28;20030;-72
2022/04/06 01:29:05;;;;;;;2.83;1.48;;;9.70;99.90;;;;;;5024120;28;20036;-72
2022/04/06 01:31:31;;;;;;;2.20;1.23;;;9.60;99.90;;;;;;5028536;28;20386;-72
2022/04/06 01:33:56;;;;;;;1.90;1.33;;;9.70;99.90;;;;;;5026733;28;20033;-73
2022/04/06 01:36:28;;;;;;;2.13;1.30;;;9.70;99.90;;;;;;5024967;28;20029;-73
2022/04/06 01:38:54;;;;;;;2.67;1.33;;;9.60;99.90;;;;;;5022425;28;20022;-72
2022/04/06 01:41:19;;;;;;;2.38;1.23;;;9.60;99.90;;;;;;5029580;28;20037;-72
2022/04/06 01:43:45;;;;;;;2.33;1.52;;;9.60;99.90;;;;;;5025820;28;20055;-71
2022/04/06 01:46:10;;;;;;;2.83;1.42;;;9.60;99.90;;;;;;5028602;28;20033;-71
2022/04/06 01:52:11;;;;;;;2.88;1.33;;;9.60;99.90;;;;;;5031517;28;20022;-72
2022/04/06 01:54:06;;;;;;;3.22;1.30;;;9.60;99.90;;;;;;5029562;28;20139;-71
2022/04/06 01:56:31;;;;;;;3.10;1.38;;;9.60;99.90;;;;;;5027676;28;20121;-72
2022/04/06 01:58:57;;;;;;;2.13;1.20;;;9.60;99.90;;;;;;5028493;28;20033;-72
2022/04/06 02:01:23;;;;;;;1.67;1.00;;;9.60;99.90;;;;;;5028636;28;20025;-72
2022/04/06 02:03:48;;;;;;;1.58;1.10;;;9.60;99.90;;;;;;5030537;28;20495;-72
2022/04/06 02:06:14;;;;;;;2.10;1.10;;;9.60;99.90;;;;;;5033664;28;20033;-72
2022/04/06 02:08:40;;;;;;;2.55;1.40;;;9.50;99.90;;;;;;5026811;28;20038;-74
2022/04/06 02:11:07;;;;;;;2.00;1.30;;;9.60;99.90;;;;;;5027558;28;20026;-74
2022/04/06 02:13:33;;;;;;;1.65;1.25;;;9.60;99.90;;;;;;5028245;28;20079;-71
2022/04/06 02:15:59;;;;;;;2.92;1.17;;;9.60;99.90;;;;;;5023998;28;20018;-73
2022/04/06 02:18:25;;;;;;;1.40;1.05;;;9.60;99.90;;;;;;5026863;28;20025;-73
2022/04/06 02:20:51;;;;;;;2.75;1.33;;;9.60;99.90;;;;;;5027015;28;20036;-73
2022/04/06 02:23:16;;;;;;;3.72;1.23;;;9.50;99.90;;;;;;5029406;28;20421;-73
2022/04/06 02:25:42;;;;;;;2.63;1.50;;;9.50;99.90;;;;;;5025776;28;20438;-74
2022/04/06 02:28:07;;;;;;;3.13;0.95;;;9.50;99.90;;;;;;5027488;28;20029;-73
2022/04/06 02:30:33;;;;;;;2.95;1.30;;;9.60;99.90;;;;;;5024461;28;20406;-73
2022/04/06 02:32:59;;;;;;;2.60;1.33;;;9.60;99.90;;;;;;5022641;28;20498;-73
2022/04/06 02:35:24;;;;;;;3.10;1.38;;;9.50;99.90;;;;;;5030597;28;20048;-73
2022/04/06 02:37:50;;;;;;;2.53;1.73;;;9.50;99.90;;;;;;5026369;28;20033;-73
2022/04/06 02:40:16;;;;;;;2.45;1.40;;;9.50;99.90;;;;;;5028691;28;20764;-73
2022/04/06 02:42:43;;;;;;;2.60;1.40;;;9.50;99.90;;;;;;5028350;28;20049;-73
2022/04/06 02:45:09;;;;;;;1.92;1.30;;;9.50;99.90;;;;;;5023980;28;20457;-73
2022/04/06 02:47:36;;;;;;;2.03;1.50;;;9.50;99.90;;;;;;5026042;28;20033;-73
2022/04/06 02:50:03;;;;;;;3.75;1.80;;;9.50;99.90;;;;;;5025627;28;20026;-73
2022/04/06 02:52:29;;;;;;;1.45;1.23;;;9.50;99.90;;;;;;5024708;28;20037;-73
2022/04/06 02:54:55;;;;;;;4.55;1.65;;;9.50;99.90;;;;;;5024017;28;20018;-74
2022/04/06 02:57:21;;;;;;;4.32;1.25;;;9.50;99.90;;;;;;5024608;28;20374;-73
2022/04/06 02:59:46;;;;;;;3.72;1.80;;;9.50;99.90;;;;;;5026220;28;20025;-73
2022/04/06 03:02:12;;;;;;;3.17;1.90;;;9.50;99.90;;;;;;5026561;28;20088;-72
2022/04/06 03:04:37;;;;;;;5.18;1.90;;;9.50;99.90;;;;;;5025912;28;20084;-74
2022/04/06 03:07:03;;;;;;;2.58;1.70;;;9.50;99.90;;;;;;5026815;28;20025;-73
2022/04/06 03:09:29;;;;;;;3.75;1.67;;;9.50;99.90;;;;;;5023045;28;20096;-73
2022/04/06 03:11:55;;;;;;;2.88;2.03;;;9.50;99.90;;;;;;5026035;28;20032;-73
2022/04/06 03:14:20;;;;;;;3.03;1.95;;;9.50;99.90;;;;;;5026841;28;20037;-73
2022/04/06 03:16:46;;;;;;;2.42;1.88;;;9.40;99.90;;;;;;5021827;28;20047;-74
2022/04/06 03:19:11;;;;;;;2.42;1.92;;;9.50;99.90;;;;;;5026480;28;20052;-74
2022/04/06 03:21:37;;;;;;;2.83;2.05;;;9.50;99.90;;;;;;5027330;28;20471;-74
2022/04/06 03:24:03;;;;;;;3.25;1.95;;;9.40;99.90;;;;;;5027803;28;20041;-74
2022/04/06 03:26:28;;;;;;;2.13;1.83;;;9.50;99.90;;;;;;5023913;28;20498;-74
2022/04/06 03:28:54;;;;;;;3.22;2.30;;;9.40;99.90;;;;;;5024150;28;20124;-74
2022/04/06 03:31:20;;;;;;;3.63;2.03;;;9.40;99.90;;;;;;5025401;28;20555;-74
2022/04/06 03:33:45;;;;;;;2.95;2.20;;;9.40;99.90;;;;;;5024037;28;20037;-74
2022/04/06 03:36:11;;;;;;;4.45;2.28;;;9.40;99.90;;;;;;5025296;28;20026;-74
2022/04/06 03:38:37;;;;;;;3.30;2.30;;;9.40;99.90;;;;;;5025095;28;20075;-73
2022/04/06 03:41:02;;;;;;;3.00;1.92;;;9.40;99.90;;;;;;5024500;28;20163;-74
2022/04/06 03:43:29;;;;;;;2.80;1.90;;;9.40;99.90;;;;;;5025192;28;20029;-74
2022/04/06 03:45:54;;;;;;;2.95;2.25;;;9.40;99.90;;;;;;5027506;28;20038;-74
2022/04/06 03:48:22;;;;;;;4.97;2.40;;;9.40;99.90;;;;;;5024100;28;20029;-73
2022/04/06 03:50:50;;;;;;;3.72;2.67;;;9.40;99.90;;;;;;5025384;28;20030;-74
2022/04/06 03:53:16;;;;;;;4.22;2.63;;;9.40;99.90;;;;;;5023956;28;20029;-74
2022/04/06 03:55:42;;;;;;;3.83;2.50;;;9.40;99.90;;;;;;5019872;28;20024;-73
2022/04/06 03:58:07;;;;;;;4.32;2.25;;;9.40;99.90;;;;;;5023216;28;20021;-71
2022/04/06 04:00:34;;;;;;;4.55;2.33;;;9.40;99.90;;;;;;5027370;28;20509;-74
2022/04/06 04:02:59;;;;;;;5.25;2.80;;;9.40;99.90;;;;;;5027657;28;20176;-73
2022/04/06 04:05:25;;;;;;;4.13;2.88;;;9.40;99.90;;;;;;5024045;28;20981;-73
2022/04/06 04:07:51;;;;;;;4.20;2.80;;;9.40;99.90;;;;;;5026806;28;20034;-73
2022/04/06 04:10:19;;;;;;;5.07;2.95;;;9.40;99.90;;;;;;5022200;28;20415;-73
2022/04/06 04:12:45;;;;;;;4.75;2.95;;;9.40;99.90;;;;;;5021330;28;20116;-73
2022/04/06 04:15:11;;;;;;;3.55;2.55;;;9.40;99.90;;;;;;5022210;28;20167;-72
2022/04/06 04:17:36;;;;;;;2.90;2.42;;;9.40;99.90;;;;;;5023423;28;20100;-72
2022/04/06 04:20:20;;;;;;;4.72;2.60;;;9.40;99.90;;;;;;5023964;28;20018;-72
2022/04/06 04:22:47;;;;;;;;;;;9.40;99.90;;;;;;5022064;28;20506;-72
2022/04/06 04:25:13;;;;;;;3.80;2.47;;;9.40;99.90;;;;;;5026440;28;20333;-74
2022/04/06 04:27:39;;;;;;;3.72;2.78;;;9.50;99.90;;;;;;5026076;28;20021;-73
2022/04/06 04:30:06;;;;;;;4.45;2.97;;;9.40;99.90;;;;;;5028500;28;20060;-72
2022/04/06 04:32:34;;;;;;;3.90;3.13;;;9.50;99.90;;;;;;5031994;28;20167;-72
2022/04/06 04:35:03;;;;;;;4.45;2.97;;;9.50;99.90;;;;;;5028227;28;20022;-72
2022/04/06 04:37:29;;;;;;;5.20;3.17;;;9.40;99.90;;;;;;5028768;28;20030;-72
2022/04/06 04:40:00;;;;;;;5.03;3.38;;;9.50;99.90;;;;;;5022658;28;20352;-72
2022/04/06 04:42:29;;;;;;;3.90;3.15;;;9.50;99.90;;;;;;5028474;28;20086;-72
2022/04/06 04:44:55;;;;;;;6.07;2.95;;;9.50;99.90;;;;;;5024243;28;20037;-73
2022/04/06 04:47:21;;;;;;;4.57;2.78;;;9.50;99.90;;;;;;5027619;28;20049;-74
2022/04/06 04:49:47;;;;;;;5.45;3.28;;;9.50;99.90;;;;;;5031916;28;20060;-74
2022/04/06 04:52:13;;;;;;;5.47;3.10;;;9.50;99.90;;;;;;5030571;28;20064;-73
2022/04/06 04:54:38;;;;;;;4.13;3.20;;;9.50;99.90;;;;;;5031116;28;20434;-74
2022/04/06 04:57:05;;;;;;;3.95;3.08;;;9.50;99.90;;;;;;5025643;28;20018;-73
2022/04/06 04:59:30;;;;;;;5.88;3.28;;;9.50;99.90;;;;;;5024161;28;20094;-74
2022/04/06 05:01:56;;;;;;;5.85;3.28;;;9.50;99.90;;;;;;5029592;28;20092;-72
2022/04/06 05:04:22;;;;;;;4.13;3.45;;;9.50;99.90;;;;;;5029722;28;20152;-73
2022/04/06 05:06:47;;;;;;;4.82;3.15;;;9.50;99.90;;;;;;5034693;28;20045;-72
2022/04/06 05:09:13;;;;;;;4.25;2.60;;;9.50;99.90;;;;;;5029156;28;20025;-74
2022/04/06 05:11:39;;;;;;;4.90;3.05;;;9.50;99.90;;;;;;5031595;28;20429;-74
2022/04/06 05:14:05;;;;;;;4.03;3.05;;;9.60;99.90;;;;;;5031085;28;20083;-74
2022/04/06 05:16:31;;;;;;;5.70;3.45;;;9.50;99.90;;;;;;5030891;28;20110;-74
2022/04/06 05:18:58;;;;;;;5.53;2.63;;;9.60;99.90;;;;;;5026766;28;20018;-73
2022/04/06 05:21:24;;;;;;;5.30;2.95;;;9.60;99.90;;;;;;5032771;28;20033;-73
2022/04/06 05:23:50;;;;;;;5.00;2.95;;;9.60;99.90;;;;;;5030225;28;21294;-73
2022/04/06 05:26:16;;;;;;;4.95;3.15;;;9.60;99.90;;;;;;5031386;28;20040;-72
2022/04/06 05:28:42;;;;;;;7.53;3.10;;;9.60;99.90;;;;;;5024466;28;20033;-71
2022/04/06 05:31:07;;;;;;;6.28;3.10;;;9.70;99.90;;;;;;5025011;28;20390;-72
2022/04/06 05:33:33;;;;;;;5.00;3.28;;;9.60;99.90;;;;;;5026020;28;20022;-72
2022/04/06 05:35:59;;;;;;;3.53;2.67;;;9.70;99.90;;;;;;5024540;28;20482;-72
2022/04/06 05:38:25;;;;;;;3.78;2.75;;;9.70;99.90;;;;;;5040802;28;21165;-72
2022/04/06 05:40:52;;;;;;;5.03;2.80;;;9.70;99.90;;;;;;5025389;28;20032;-71
2022/04/06 05:43:17;;;;;;;5.35;2.92;;;9.70;99.90;;;;;;5021695;28;20037;-73
2022/04/06 05:45:43;;;;;;;6.00;2.90;;;9.70;99.90;;;;;;5024497;28;20036;-72
2022/04/06 05:48:10;;;;;;;4.43;3.05;;;9.80;99.90;;;;;;5027127;28;20090;-72
2022/04/06 05:50:35;;;;;;;4.20;2.67;;;9.80;99.90;;;;;;5024597;28;20026;-72
2022/04/06 05:53:01;;;;;;;3.97;2.85;;;9.80;99.90;;;;;;5026421;28;20037;-73
2022/04/06 05:55:27;;;;;;;5.63;2.58;;;9.80;99.90;;;;;;5028316;28;20025;-72
2022/04/06 05:57:53;;;;;;;4.03;2.55;;;9.80;99.90;;;;;;5027599;28;20028;-73
2022/04/06 06:00:22;;;;;;;3.13;1.83;;;9.90;99.90;;;;;;5025219;28;20028;-72
2022/04/06 06:02:47;;;;;;;3.40;2.15;;;9.90;99.90;;;;;;5028146;28;20579;-73
2022/04/06 06:05:13;;;;;;;2.38;1.67;;;9.90;99.90;;;;;;5023705;28;20038;-72
2022/04/06 06:07:39;;;;;;;4.35;1.85;;;9.90;99.90;;;;;;5028212;28;20083;-71
2022/04/06 06:10:05;;;;;;;2.67;1.80;;;9.90;99.90;;;;;;5032304;28;20037;-71
2022/04/06 06:12:31;;;;;;;2.95;2.00;;;9.90;99.90;;;;;;5025114;28;20105;-71
2022/04/06 06:14:57;;;;;;;4.78;2.30;;;9.90;99.90;;;;;;5032672;28;20033;-71
2022/04/06 06:17:23;;;;;;;6.07;2.10;;;10.00;99.90;;;;;;5025144;28;20038;-70
2022/04/06 06:19:48;;;;;;;4.55;2.00;;;10.00;99.90;;;;;;5020728;28;20022;-71
2022/04/06 06:22:14;;;;;;;4.43;2.78;;;10.00;99.90;;;;;;5021949;28;20494;-71
2022/04/06 06:24:40;;;;;;;3.40;2.13;;;10.00;99.90;;;;;;5023096;28;20482;-72
2022/04/06 06:27:06;;;;;;;3.95;2.35;;;10.00;99.90;;;;;;5025573;28;20139;-72
2022/04/06 06:29:32;;;;;;;3.67;2.00;;;10.10;99.90;;;;;;5027696;28;20040;-72
2022/04/06 06:31:58;;;;;;;5.47;3.03;;;10.10;99.90;;;;;;5021947;28;20087;-71
2022/04/06 06:34:24;;;;;;;3.60;2.08;;;10.10;99.90;;;;;;5040875;28;20030;-71
2022/04/06 06:36:50;;;;;;;3.65;2.35;;;10.20;99.90;;;;;;5027359;28;20030;-71
2022/04/06 06:39:15;;;;;;;3.33;2.30;;;10.10;99.90;;;;;;5023322;28;20105;-71
2022/04/06 06:41:42;;;;;;;4.60;2.22;;;10.20;99.90;;;;;;5029886;28;20382;-71
2022/04/06 06:44:08;;;;;;;3.28;2.10;;;10.20;99.90;;;;;;5025668;28;20022;-71
2022/04/06 06:46:33;;;;;;;2.50;1.83;;;10.30;99.90;;;;;;5024692;28;20030;-71
2022/04/06 06:49:03;;;;;;;5.10;1.95;;;10.30;99.90;;;;;;5026448;28;20062;-71
2022/04/06 06:51:32;;;;;;;3.55;1.77;;;10.40;99.90;;;;;;5024871;28;20487;-72
2022/04/06 06:53:59;;;;;;;3.13;1.50;;;10.40;99.90;;;;;;5027482;28;20076;-71
2022/04/06 06:56:25;;;;;;;1.95;1.48;;;10.50;99.90;;;;;;5024546;28;20022;-71
2022/04/06 06:58:51;;;;;;;2.22;1.48;;;10.50;99.90;;;;;;5024760;28;20037;-71
2022/04/06 07:01:17;;;;;;;2.20;1.10;;;10.50;99.90;;;;;;5024250;28;20018;-72
2022/04/06 07:03:43;;;;;;;3.53;1.08;;;10.60;99.90;;;;;;5024159;28;20037;-71
2022/04/06 07:06:08;;;;;;;1.88;1.20;;;10.60;99.90;;;;;;5024171;28;20032;-71
2022/04/06 07:08:34;;;;;;;2.97;1.00;;;10.60;99.90;;;;;;5023633;28;20034;-71
2022/04/06 07:11:00;;;;;;;3.40;1.25;;;10.70;99.90;;;;;;5023815;28;20025;-71
2022/04/06 07:13:25;;;;;;;1.30;0.85;;;10.80;99.90;;;;;;5025953;28;20037;-72
2022/04/06 07:15:51;;;;;;;1.52;0.70;;;10.80;99.90;;;;;;5029895;28;20431;-72
2022/04/06 07:18:18;;;;;;;1.50;1.00;;;10.90;99.90;;;;;;5026714;28;20052;-72
2022/04/06 07:20:44;;;;;;;1.30;0.90;;;10.90;99.90;;;;;;5027167;28;20024;-72
2022/04/06 07:23:10;;;;;;;2.25;0.90;;;11.00;99.90;;;;;;5026262;28;20029;-72
2022/04/06 07:25:36;;;;;;;1.58;0.70;;;11.00;99.90;;;;;;5026683;28;20034;-72
2022/04/06 07:28:03;;;;;;;1.58;0.80;;;11.10;99.90;;;;;;5028108;28;20029;-72
2022/04/06 07:30:29;;;;;;;1.70;0.70;;;11.10;99.90;;;;;;5024793;28;20513;-71
2022/04/06 07:32:57;;;;;;;3.85;0.60;;;11.10;99.90;;;;;;5025200;28;20029;-71
2022/04/06 07:35:22;;;;;;;0.73;0.60;;;11.10;99.90;;;;;;5043086;28;20045;-71
2022/04/06 07:37:50;;;;;;;1.25;0.70;;;11.10;99.90;;;;;;5028015;28;20033;-72
2022/04/06 07:40:17;;;;;;;1.13;0.70;;;11.20;99.90;;;;;;5028741;28;20105;-71
2022/04/06 07:42:44;;;;;;;3.05;0.70;;;11.20;99.90;;;;;;5025786;28;20040;-72
2022/04/06 07:45:18;;;;;;;5.38;0.90;;;11.20;99.90;;;;;;5023225;28;20378;-72
2022/04/06 07:47:46;;;;;;;1.08;0.60;;;11.20;99.90;;;;;;5021859;28;20163;-71
2022/04/06 07:50:13;;;;;;;1.85;0.70;;;11.10;99.90;;;;;;5026241;28;20021;-71
2022/04/06 07:52:40;;;;;;;2.05;0.75;;;11.20;99.90;;;;;;5022954;28;20033;-71
2022/04/06 07:55:07;;;;;;;1.50;0.77;;;11.20;99.90;;;;;;5029004;28;20029;-73
2022/04/06 07:57:33;;;;;;;2.35;1.10;;;11.30;99.90;;;;;;5027227;28;20168;-72
2022/04/06 08:00:05;;;;;;;5.97;0.82;;;11.30;99.90;;;;;;5031621;28;20021;-73
2022/04/06 08:02:31;;;;;;;1.65;0.70;;;11.40;99.90;;;;;;5030841;28;20037;-72
2022/04/06 08:04:57;;;;;;;1.77;0.80;;;11.50;99.90;;;;;;5025244;28;20021;-72
2022/04/06 08:07:22;;;;;;;2.53;0.90;;;11.50;99.90;;;;;;5029122;28;20030;-72
2022/04/06 08:09:48;;;;;;;3.80;1.08;;;11.60;99.90;;;;;;5026676;28;20053;-72
2022/04/06 08:12:14;;;;;;;4.45;0.95;;;11.70;99.90;;;;;;5024218;28;20456;-73
2022/04/06 08:14:39;;;;;;;1.40;0.80;;;11.70;99.90;;;;;;5027233;28;20041;-72
2022/04/06 08:17:05;;;;;;;1.85;1.02;;;11.80;99.90;;;;;;5026894;28;20112;-73
2022/04/06 08:19:33;;;;;;;1.25;0.80;;;11.80;99.90;;;;;;5028519;28;20113;-72
2022/04/06 08:21:59;;;;;;;3.63;0.93;;;11.80;99.90;;;;;;5022210;28;20053;-73
2022/04/06 08:24:25;;;;;;;2.05;0.70;;;11.80;99.90;;;;;;5041625;28;20069;-73
2022/04/06 08:26:51;;;;;;;1.10;0.60;;;11.90;99.90;;;;;;5026819;28;20046;-73
2022/04/06 08:29:17;;;;;;;1.52;0.80;;;11.90;99.90;;;;;;5030828;28;20025;-72
2022/04/06 08:31:42;;;;;;;1.50;0.90;;;11.90;99.90;;;;;;5026440;28;20120;-73
2022/04/06 08:34:08;;;;;;;1.92;0.98;;;12.00;99.90;;;;;;5022538;28;20048;-74
2022/04/06 08:36:34;;;;;;;1.02;0.73;;;12.10;99.90;;;;;;5025663;28;20026;-72
2022/04/06 08:39:01;;;;;;;0.80;0.60;;;12.10;99.90;;;;;;5022384;28;20064;-74
2022/04/06 08:41:28;;;;;;;1.02;0.68;;;12.20;99.90;;;;;;5023837;28;20029;-74
2022/04/06 08:43:56;;;;;;;1.48;0.60;;;12.20;99.90;;;;;;5025607;28;20047;-73
2022/04/06 08:46:21;;;;;;;2.30;0.50;;;12.30;99.90;;;;;;5018937;28;20124;-74
2022/04/06 08:48:48;;;;;;;1.40;0.60;;;12.40;99.90;;;;;;5026989;28;20553;-73
2022/04/06 08:51:17;;;;;;;1.42;0.50;;;12.50;99.90;;;;;;5027088;28;20545;-74
2022/04/06 08:53:43;;;;;;;1.35;0.60;;;12.50;99.90;;;;;;5023728;28;20036;-74
2022/04/06 08:56:12;;;;;;;1.02;0.70;;;12.70;99.90;;;;;;5019335;28;20034;-72
2022/04/06 08:58:38;;;;;;;0.70;0.40;;;12.80;99.90;;;;;;5026750;28;20029;-73
2022/04/06 09:01:04;;;;;;;1.13;0.52;;;12.80;99.90;;;;;;5030061;28;20029;-72
2022/04/06 09:03:30;;;;;;;2.03;0.60;;;12.80;99.90;;;;;;5022905;28;20029;-73
2022/04/06 09:06:07;;;;;;;3.17;0.40;;;12.90;99.90;;;;;;5024046;28;20033;-73
2022/04/06 09:08:41;;;;;;;0.70;0.40;;;12.90;99.90;;;;;;5029023;28;20390;-73
2022/04/06 09:11:19;;;;;;;1.13;0.40;;;13.00;99.90;;;;;;5023725;28;20068;-74
2022/04/06 09:13:47;;;;;;;1.33;0.40;;;13.10;99.90;;;;;;5031081;28;20018;-72
2022/04/06 09:16:17;;;;;;;1.23;0.32;;;13.30;99.90;;;;;;5026491;28;20022;-72
2022/04/06 09:18:45;;;;;;;1.23;0.63;;;13.50;99.90;;;;;;5026617;28;20564;-73
2022/04/06 09:21:12;;;;;;;1.25;0.50;;;13.60;99.90;;;;;;5031366;28;20030;-73
2022/04/06 09:23:39;;;;;;;1.27;0.85;;;13.80;99.90;;;;;;5026637;28;20084;-72
2022/04/06 09:26:06;;;;;;;1.10;0.57;;;14.00;99.90;;;;;;5029509;28;20053;-73
2022/04/06 09:28:32;;;;;;;0.85;0.52;;;14.00;99.90;;;;;;5026021;28;20135;-72
2022/04/06 09:30:58;;;;;;;2.17;0.73;;;14.00;99.90;;;;;;5030261;28;20064;-72
2022/04/06 09:33:28;;;;;;;1.48;0.80;;;14.00;99.90;;;;;;5025593;28;20030;-72
2022/04/06 09:35:58;;;;;;;0.80;0.50;;;14.00;99.90;;;;;;5024031;28;20039;-73
2022/04/06 09:38:27;;;;;;;0.80;0.45;;;14.20;99.90;;;;;;5027577;28;20493;-74
2022/04/06 09:41:06;;;;;;;0.70;0.45;;;14.20;99.90;;;;;;5026668;28;20018;-73
2022/04/06 09:43:34;;;;;;;1.65;0.68;;;14.40;99.90;;;;;;5022825;28;20090;-73
2022/04/06 09:49:16;;;;;;;1.85;0.60;;;14.50;99.90;;;;;;5027483;28;20028;-73
2022/04/06 09:51:43;;;;;;;1.98;0.60;;;14.50;99.90;;;;;;5031634;28;20379;-73
2022/04/06 09:54:12;;;;;;;6.85;0.98;;;14.50;99.90;;;;;;5032638;28;20466;-73
2022/04/06 09:56:39;;;;;;;1.70;0.80;;;14.50;99.90;;;;;;5032990;28;20082;-73
2022/04/06 09:59:06;;;;;;;0.80;0.30;;;14.50;99.90;;;;;;5029895;28;20017;-73
2022/04/06 10:01:38;;;;;;;1.25;0.70;;;14.50;99.90;;;;;;5024738;28;20025;-72
2022/04/06 10:04:06;;;;;;;1.20;0.65;;;14.50;99.90;;;;;;5024896;28;20563;-73
2022/04/06 10:06:37;;;;;;;1.65;0.80;;;14.60;99.90;;;;;;5029249;28;20112;-73
2022/04/06 10:09:08;;;;;;;2.55;1.00;;;14.50;99.90;;;;;;5030069;28;20551;-72
2022/04/06 10:11:35;;;;;;;1.52;0.60;;;14.60;99.90;;;;;;5027249;28;20033;-72
2022/04/06 10:14:04;;;;;;;3.83;0.60;;;14.60;99.90;;;;;;5028368;28;20116;-73
2022/04/06 10:16:31;;;;;;;1.25;0.73;;;14.50;99.90;;;;;;5029916;28;20021;-72
2022/04/06 10:18:58;;;;;;;1.30;0.43;;;14.60;99.90;;;;;;5028611;28;20029;-74
2022/04/06 10:21:48;;;;;;;0.80;0.50;;;14.60;99.90;;;;;;5028074;28;20032;-73
2022/04/06 10:24:20;;;;;;;1.92;0.60;;;14.60;99.90;;;;;;5028593;28;20107;-72
2022/04/06 10:27:28;;;;;;;2.17;0.77;;;14.70;99.90;;;;;;5027922;28;20033;-72
2022/04/06 10:30:06;;;;;;;1.67;0.45;;;14.60;99.90;;;;;;5029695;28;20029;-73
2022/04/06 10:32:44;;;;;;;0.65;0.40;;;14.60;99.90;;;;;;5030408;28;20116;-72
2022/04/06 10:35:26;;;;;;;1.27;0.30;;;14.70;99.90;;;;;;5029217;28;20030;-72
2022/04/06 10:38:00;;;;;;;0.93;0.52;;;14.70;99.90;;;;;;5024292;28;20018;-72
2022/04/06 10:40:31;;;;;;;1.77;0.50;;;14.70;99.80;;;;;;5025992;28;20054;-71
2022/04/06 10:42:57;;;;;;;4.65;0.85;;;14.70;99.90;;;;;;5026672;28;20029;-72
2022/04/06 10:45:29;;;;;;;1.85;0.50;;;14.70;99.90;;;;;;5026721;28;20044;-72
2022/04/06 10:48:18;;;;;;;1.33;0.77;;;14.70;99.90;;;;;;5024445;28;20083;-73
2022/04/06 10:50:48;;;;;;;1.42;0.57;;;14.90;99.80;;;;;;5022950;28;20026;-73
2022/04/06 10:53:23;;;;;;;0.60;0.40;;;14.90;99.50;;;;;;5026912;28;20033;-73
2022/04/06 10:56:17;;;;;;;1.83;0.52;;;15.00;99.00;;;;;;5042493;28;20111;-72
2022/04/06 10:58:58;;;;;;;1.83;0.50;;;15.10;98.40;;;;;;5025124;28;20053;-73
2022/04/06 11:01:32;;;;;;;0.35;0.35;;;15.10;98.30;;;;;;5024553;28;20490;-74
2022/04/06 11:03:59;;;;;;;0.60;0.38;;;15.10;98.10;;;;;;5023601;28;20030;-73
2022/04/06 11:06:44;;;;;;;1.08;0.55;;;15.20;98.40;;;;;;5027092;28;20029;-73
2022/04/06 11:12:15;;;;;;;1.43;0.50;;;15.30;97.60;;;;;;5025844;28;20057;-71
2022/04/06 11:14:43;;;;;;;1.13;0.60;;;15.60;97.30;;;;;;5027092;28;20283;-71
2022/04/06 11:17:34;;;;;;;0.73;0.40;;;15.70;96.70;;;;;;5026331;28;20029;-74
2022/04/06 11:20:19;;;;;;;2.08;0.77;;;15.70;96.10;;;;;;5023843;28;20390;-72
2022/04/06 11:22:55;;;;;;;1.40;0.50;;;15.70;96.30;;;;;;5025054;28;20397;-73
2022/04/06 11:25:23;;;;;;;0.80;0.40;;;15.50;96.50;;;;;;5022152;28;20029;-74
2022/04/06 11:27:50;;;;;;;1.35;0.60;;;15.50;96.40;;;;;;5029682;28;20060;-73
2022/04/06 11:30:17;;;;;;;0.55;0.35;;;15.50;96.40;;;;;;5022850;28;20020;-75
2022/04/06 11:32:54;;;;;;;2.08;0.30;;;15.60;95.20;;;;;;5028136;28;20054;-72
2022/04/06 11:35:21;;;;;;;0.98;0.65;;;15.60;95.70;;;;;;5024037;28;20025;-72
2022/04/06 11:37:50;;;;;;;1.00;0.40;;;15.70;95.30;;;;;;5023376;28;20039;-73
2022/04/06 11:40:27;;;;;;;2.42;0.35;;;15.80;94.80;;;;;;5025497;28;20025;-73
2022/04/06 11:42:58;;;;;;;0.70;0.40;;;15.80;94.80;;;;;;5023752;28;20021;-72
2022/04/06 11:45:29;;;;;;;0.47;0.32;;;15.80;94.70;;;;;;5028881;28;20030;-72
2022/04/06 11:47:56;;;;;;;2.88;0.70;;;15.80;94.20;;;;;;5028293;28;20017;-72
2022/04/06 11:50:27;;;;;;;4.05;1.02;;;15.80;94.10;;;;;;5028723;28;20036;-72
2022/04/06 11:52:53;;;;;;;1.17;0.60;;;15.80;94.20;;;;;;5028089;28;20084;-72
2022/04/06 11:55:19;;;;;;;5.13;2.13;;;15.70;93.90;;;;;;5025535;28;20025;-72
2022/04/06 11:57:46;;;;;;;1.60;0.65;;;15.70;93.60;;;;;;5023971;28;20026;-72
2022/04/06 12:00:13;;;;;;;0.77;0.50;;;15.80;93.00;;;;;;5023275;28;20075;-72
2022/04/06 12:02:47;;;;;;;1.88;0.40;;;15.80;92.80;;;;;;5024833;28;20461;-73
2022/04/06 12:05:13;;;;;;;0.38;0.30;;;15.80;92.80;;;;;;5027349;28;20068;-72
2022/04/06 12:07:38;;;;;;;3.00;0.57;;;15.80;92.80;;;;;;5025794;28;20053;-72
2022/04/06 12:10:04;;;;;;;0.63;0.50;;;15.70;92.70;;;;;;5029818;28;20445;-72
2022/04/06 12:12:30;;;;;;;0.47;0.32;;;15.70;92.60;;;;;;5028376;28;20052;-72
2022/04/06 12:15:01;;;;;;;0.60;0.40;;;15.70;92.20;;;;;;5026412;28;20059;-72
2022/04/06 12:17:26;;;;;;;0.70;0.40;;;15.90;92.00;;;;;;5025472;28;20030;-75
2022/04/06 12:19:52;;;;;;;2.38;0.50;;;16.00;91.70;;;;;;5025956;28;20113;-75
2022/04/06 12:22:26;;;;;;;0.60;0.50;;;16.10;91.80;;;;;;5021883;28;20021;-75
2022/04/06 12:24:52;;;;;;;0.52;0.40;;;16.20;91.10;;;;;;5021562;28;20060;-76
2022/04/06 12:27:28;;;;;;;4.63;0.70;;;16.20;90.40;;;;;;5026420;28;20033;-75
2022/04/06 12:30:08;;;;;;;0.40;0.40;;;16.20;90.10;;;;;;5026217;28;20477;-74
2022/04/06 12:32:44;;;;;;;1.02;0.50;;;16.20;89.70;;;;;;5026139;28;20112;-75
2022/04/06 12:35:21;;;;;;;0.45;0.40;;;16.30;90.10;;;;;;5029355;28;20103;-75
2022/04/06 12:37:46;;;;;;;0.63;0.40;;;16.30;90.20;;;;;;5036413;28;20041;-74
2022/04/06 12:40:23;;;;;;;0.73;0.50;;;16.30;90.10;;;;;;5025702;28;20026;-73
2022/04/06 12:42:50;;;;;;;0.45;0.30;;;16.20;90.10;;;;;;5024974;28;20029;-73
2022/04/06 12:45:18;;;;;;;1.00;0.50;;;16.10;90.20;;;;;;5029379;28;20124;-73
2022/04/06 12:47:44;;;;;;;0.30;0.30;;;16.10;90.40;;;;;;5025771;28;20018;-73
2022/04/06 12:50:19;;;;;;;2.60;0.60;;;16.00;90.20;;;;;;5030282;28;20022;-72
2022/04/06 12:53:07;;;;;;;0.50;0.38;;;16.00;90.40;;;;;;5029024;28;20067;-73
2022/04/06 12:55:33;;;;;;;0.75;0.40;;;16.00;90.00;;;;;;5027502;28;20446;-73
2022/04/06 12:58:19;;;;;;;1.15;0.40;;;15.90;90.40;;;;;;5031949;28;20021;-72
2022/04/06 13:00:45;;;;;;;0.98;0.50;;;15.90;90.40;;;;;;5023498;28;20033;-71
2022/04/06 13:03:11;;;;;;;0.75;0.50;;;15.90;90.60;;;;;;5021742;28;20035;-71
2022/04/06 13:05:37;;;;;;;1.48;0.55;;;15.90;91.00;;;;;;5029237;28;20029;-73
2022/04/06 13:08:03;;;;;;;0.80;0.50;;;15.90;90.60;;;;;;5029350;28;20048;-69